sensor_id;sensor_type;location;lat;lon;timestamp;temperature;humidity
26212;DHT22;13951;49.516;6.094;2023-04-28T00:00:43;13.10;99.90
26212;DHT22;13951;49.516;6.094;2023-04-28T00:03:18;13.00;99.90
26212;DHT22;13951;49.516;6.094;2023-04-28T00:05:52;13.00;99.90
26212;DHT22;13951;49.516;6.094;2023-04-28T00:08:25;13.00;99.90
26212;DHT22;13951;49.516;6.094;2023-04-28T00:10:59;13.00;99.90
26212;DHT22;13951;49.516;6.094;2023-04-28T00:13:32;13.00;99.90
26212;DHT22;13951;49.516;6.094;2023-04-28T00:16:08;13.10;99.90
26212;DHT22;13951;49.516;6.094;2023-04-28T00:18:40;13.00;99.90
26212;DHT22;13951;49.516;6.094;2023-04-28T00:21:13;13.00;99.90
26212;DHT22;13951;49.516;6.094;2023-04-28T00:23:46;13.00;99.90
26212;DHT22;13951;49.516;6.094;2023-04-28T00:26:19;13.00;99.90
26212;DHT22;13951;49.516;6.094;2023-04-28T00:28:52;13.00;99.90
26212;DHT22;13951;49.516;6.094;2023-04-28T00:31:25;13.00;99.90
26212;DHT22;13951;49.516;6.094;2023-04-28T00:33:58;13.00;99.90
26212;DHT22;13951;49.516;6.094;2023-04-28T00:36:31;12.90;99.90
26212;DHT22;13951;49.516;6.094;2023-04-28T00:39:05;12.90;99.90
26212;DHT22;13951;49.516;6.094;2023-04-28T00:41:38;12.90;99.90
26212;DHT22;13951;49.516;6.094;2023-04-28T00:44:12;12.90;99.90
26212;DHT22;13951;49.516;6.094;2023-04-28T00:46:45;12.90;99.90
26212;DHT22;13951;49.516;6.094;2023-04-28T00:49:19;13.00;99.90
26212;DHT22;13951;49.516;6.094;2023-04-28T00:51:52;13.00;99.90
26212;DHT22;13951;49.516;6.094;2023-04-28T00:54:25;13.00;99.90
26212;DHT22;13951;49.516;6.094;2023-04-28T00:56:59;13.00;99.90
26212;DHT22;13951;49.516;6.094;2023-04-28T00:59:31;13.00;99.90
26212;DHT22;13951;49.516;6.094;2023-04-28T01:02:05;13.00;99.90
26212;DHT22;13951;49.516;6.094;2023-04-28T01:04:39;13.00;99.90
26212;DHT22;13951;49.516;6.094;2023-04-28T01:07:12;13.00;99.90
26212;DHT22;13951;49.516;6.094;2023-04-28T01:09:45;13.00;99.90
26212;DHT22;13951;49.516;6.094;2023-04-28T01:12:26;13.00;99.90
26212;DHT22;13951;49.516;6.094;2023-04-28T01:15:01;13.00;99.90
26212;DHT22;13951;49.516;6.094;2023-04-28T01:17:36;13.00;99.90
26212;DHT22;13951;49.516;6.094;2023-04-28T01:20:09;12.90;99.90
26212;DHT22;13951;49.516;6.094;2023-04-28T01:22:42;12.90;99.90
26212;DHT22;13951;49.516;6.094;2023-04-28T01:25:16;12.90;99.90
26212;DHT22;13951;49.516;6.094;2023-04-28T01:27:49;12.90;99.90
26212;DHT22;13951;49.516;6.094;2023-04-28T01:30:23;12.90;99.90
26212;DHT22;13951;49.516;6.094;2023-04-28T01:32:56;12.80;99.90
26212;DHT22;13951;49.516;6.094;2023-04-28T01:35:30;12.80;99.90
26212;DHT22;13951;49.516;6.094;2023-04-28T01:38:14;12.80;99.90
26212;DHT22;13951;49.516;6.094;2023-04-28T01:40:48;12.90;99.90
26212;DHT22;13951;49.516;6.094;2023-04-28T01:43:23;12.90;99.90
26212;DHT22;13951;49.516;6.094;2023-04-28T01:45:57;12.90;99.90
26212;DHT22;13951;49.516;6.094;2023-04-28T01:48:30;12.90;99.90
26212;DHT22;13951;49.516;6.094;2023-04-28T01:51:03;12.90;99.90
26212;DHT22;13951;49.516;6.094;2023-04-28T01:53:36;12.90;99.90
26212;DHT22;13951;49.516;6.094;2023-04-28T01:56:09;12.90;99.90
26212;DHT22;13951;49.516;6.094;2023-04-28T01:58:43;12.90;99.90
26212;DHT22;13951;49.516;6.094;2023-04-28T02:01:17;12.90;99.90
26212;DHT22;13951;49.516;6.094;2023-04-28T02:03:50;12.90;99.90
26212;DHT22;13951;49.516;6.094;2023-04-28T02:06:23;12.90;99.90
26212;DHT22;13951;49.516;6.094;2023-04-28T02:09:02;12.90;99.90
26212;DHT22;13951;49.516;6.094;2023-04-28T02:11:35;12.90;99.90
26212;DHT22;13951;49.516;6.094;2023-04-28T02:14:07;12.90;99.90
26212;DHT22;13951;49.516;6.094;2023-04-28T02:16:41;12.90;99.90
26212;DHT22;13951;49.516;6.094;2023-04-28T02:19:16;12.80;99.90
26212;DHT22;13951;49.516;6.094;2023-04-28T02:21:49;12.90;99.90
26212;DHT22;13951;49.516;6.094;2023-04-28T02:24:22;12.90;99.90
26212;DHT22;13951;49.516;6.094;2023-04-28T02:26:55;12.90;99.90
26212;DHT22;13951;49.516;6.094;2023-04-28T02:29:32;12.90;99.90
26212;DHT22;13951;49.516;6.094;2023-04-28T02:32:07;12.90;99.90
26212;DHT22;13951;49.516;6.094;2023-04-28T02:34:40;13.00;99.90
26212;DHT22;13951;49.516;6.094;2023-04-28T02:37:16;13.00;99.90
26212;DHT22;13951;49.516;6.094;2023-04-28T02:39:49;13.00;99.90
26212;DHT22;13951;49.516;6.094;2023-04-28T02:42:22;13.00;99.90
26212;DHT22;13951;49.516;6.094;2023-04-28T02:44:55;13.00;99.90
26212;DHT22;13951;49.516;6.094;2023-04-28T02:47:28;13.00;99.90
26212;DHT22;13951;49.516;6.094;2023-04-28T02:50:02;13.00;99.90
26212;DHT22;13951;49.516;6.094;2023-04-28T02:52:36;13.00;99.90
26212;DHT22;13951;49.516;6.094;2023-04-28T02:55:08;13.10;99.90
26212;DHT22;13951;49.516;6.094;2023-04-28T02:57:42;13.10;99.90
26212;DHT22;13951;49.516;6.094;2023-04-28T03:00:15;13.00;99.90
26212;DHT22;13951;49.516;6.094;2023-04-28T03:02:52;13.00;99.90
26212;DHT22;13951;49.516;6.094;2023-04-28T03:05:26;13.00;99.90
26212;DHT22;13951;49.516;6.094;2023-04-28T03:07:59;13.00;99.90
26212;DHT22;13951;49.516;6.094;2023-04-28T03:10:32;13.00;99.90
26212;DHT22;13951;49.516;6.094;2023-04-28T03:13:06;13.00;99.90
26212;DHT22;13951;49.516;6.094;2023-04-28T03:15:39;13.00;99.90
26212;DHT22;13951;49.516;6.094;2023-04-28T03:18:13;13.00;99.90
26212;DHT22;13951;49.516;6.094;2023-04-28T03:20:46;13.00;99.90
26212;DHT22;13951;49.516;6.094;2023-04-28T03:23:19;12.90;99.90
26212;DHT22;13951;49.516;6.094;2023-04-28T03:25:51;13.00;99.90
26212;DHT22;13951;49.516;6.094;2023-04-28T03:28:25;12.90;99.90
26212;DHT22;13951;49.516;6.094;2023-04-28T03:30:58;12.90;99.90
26212;DHT22;13951;49.516;6.094;2023-04-28T03:33:32;12.90;99.90
26212;DHT22;13951;49.516;6.094;2023-04-28T03:36:05;12.90;99.90
26212;DHT22;13951;49.516;6.094;2023-04-28T03:38:38;12.80;99.90
26212;DHT22;13951;49.516;6.094;2023-04-28T03:41:11;12.80;99.90
26212;DHT22;13951;49.516;6.094;2023-04-28T03:44:19;12.90;99.90
26212;DHT22;13951;49.516;6.094;2023-04-28T03:46:54;12.90;99.90
26212;DHT22;13951;49.516;6.094;2023-04-28T03:49:27;12.90;99.90
26212;DHT22;13951;49.516;6.094;2023-04-28T03:52:00;12.90;99.90
26212;DHT22;13951;49.516;6.094;2023-04-28T03:54:33;12.90;99.90
26212;DHT22;13951;49.516;6.094;2023-04-28T03:57:07;12.90;99.90
26212;DHT22;13951;49.516;6.094;2023-04-28T03:59:41;12.90;99.90
26212;DHT22;13951;49.516;6.094;2023-04-28T04:02:15;12.90;99.90
26212;DHT22;13951;49.516;6.094;2023-04-28T04:04:48;12.90;99.90
26212;DHT22;13951;49.516;6.094;2023-04-28T04:07:22;13.00;99.90
26212;DHT22;13951;49.516;6.094;2023-04-28T04:09:55;12.90;99.90
26212;DHT22;13951;49.516;6.094;2023-04-28T04:12:28;13.00;99.90
26212;DHT22;13951;49.516;6.094;2023-04-28T04:15:01;13.00;99.90
26212;DHT22;13951;49.516;6.094;2023-04-28T04:17:35;13.00;99.90
26212;DHT22;13951;49.516;6.094;2023-04-28T04:20:08;13.00;99.90
26212;DHT22;13951;49.516;6.094;2023-04-28T04:22:41;13.00;99.90
26212;DHT22;13951;49.516;6.094;2023-04-28T04:25:14;13.00;99.90
26212;DHT22;13951;49.516;6.094;2023-04-28T04:27:55;13.00;99.90
26212;DHT22;13951;49.516;6.094;2023-04-28T04:30:28;13.10;99.90
26212;DHT22;13951;49.516;6.094;2023-04-28T04:33:03;13.10;99.90
26212;DHT22;13951;49.516;6.094;2023-04-28T04:35:36;13.10;99.90
26212;DHT22;13951;49.516;6.094;2023-04-28T04:38:09;13.10;99.90
26212;DHT22;13951;49.516;6.094;2023-04-28T04:40:42;13.10;99.90
26212;DHT22;13951;49.516;6.094;2023-04-28T04:43:15;13.10;99.90
26212;DHT22;13951;49.516;6.094;2023-04-28T04:45:53;13.10;99.90
26212;DHT22;13951;49.516;6.094;2023-04-28T04:48:27;13.20;99.90
26212;DHT22;13951;49.516;6.094;2023-04-28T04:51:03;13.20;99.90
26212;DHT22;13951;49.516;6.094;2023-04-28T04:53:37;13.20;99.90
26212;DHT22;13951;49.516;6.094;2023-04-28T04:56:10;13.20;99.90
26212;DHT22;13951;49.516;6.094;2023-04-28T04:58:43;13.20;99.90
26212;DHT22;13951;49.516;6.094;2023-04-28T05:01:36;13.30;99.90
26212;DHT22;13951;49.516;6.094;2023-04-28T05:04:09;13.30;99.90
26212;DHT22;13951;49.516;6.094;2023-04-28T05:06:43;13.30;99.90
26212;DHT22;13951;49.516;6.094;2023-04-28T05:09:16;13.30;99.90
26212;DHT22;13951;49.516;6.094;2023-04-28T05:11:49;13.30;99.90
26212;DHT22;13951;49.516;6.094;2023-04-28T05:16:58;13.30;99.90
26212;DHT22;13951;49.516;6.094;2023-04-28T05:19:36;13.30;99.90
26212;DHT22;13951;49.516;6.094;2023-04-28T05:22:09;13.30;99.90
26212;DHT22;13951;49.516;6.094;2023-04-28T05:24:43;13.30;99.90
26212;DHT22;13951;49.516;6.094;2023-04-28T05:27:17;13.30;99.90
26212;DHT22;13951;49.516;6.094;2023-04-28T05:29:50;13.30;99.90
26212;DHT22;13951;49.516;6.094;2023-04-28T05:32:23;13.30;99.90
26212;DHT22;13951;49.516;6.094;2023-04-28T05:34:56;13.30;99.90
26212;DHT22;13951;49.516;6.094;2023-04-28T05:37:30;13.40;99.90
26212;DHT22;13951;49.516;6.094;2023-04-28T05:40:03;13.40;99.90
26212;DHT22;13951;49.516;6.094;2023-04-28T05:42:37;13.40;99.90
26212;DHT22;13951;49.516;6.094;2023-04-28T05:45:11;13.40;99.90
26212;DHT22;13951;49.516;6.094;2023-04-28T05:47:44;13.40;99.90
26212;DHT22;13951;49.516;6.094;2023-04-28T05:50:17;13.50;99.90
26212;DHT22;13951;49.516;6.094;2023-04-28T05:52:50;13.50;99.90
26212;DHT22;13951;49.516;6.094;2023-04-28T05:55:23;13.60;99.90
26212;DHT22;13951;49.516;6.094;2023-04-28T05:57:58;13.60;99.90
26212;DHT22;13951;49.516;6.094;2023-04-28T06:00:32;13.60;99.90
26212;DHT22;13951;49.516;6.094;2023-04-28T06:03:05;13.70;99.90
26212;DHT22;13951;49.516;6.094;2023-04-28T06:05:43;13.70;99.90
26212;DHT22;13951;49.516;6.094;2023-04-28T06:08:18;13.70;99.90
26212;DHT22;13951;49.516;6.094;2023-04-28T06:10:51;13.80;99.90
26212;DHT22;13951;49.516;6.094;2023-04-28T06:13:26;13.80;99.90
26212;DHT22;13951;49.516;6.094;2023-04-28T06:15:58;13.80;99.90
26212;DHT22;13951;49.516;6.094;2023-04-28T06:18:37;13.80;99.90
26212;DHT22;13951;49.516;6.094;2023-04-28T06:21:10;13.90;99.90
26212;DHT22;13951;49.516;6.094;2023-04-28T06:23:43;13.80;99.90
26212;DHT22;13951;49.516;6.094;2023-04-28T06:26:17;13.90;99.90
26212;DHT22;13951;49.516;6.094;2023-04-28T06:28:50;13.90;99.90
26212;DHT22;13951;49.516;6.094;2023-04-28T06:31:23;14.00;99.90
26212;DHT22;13951;49.516;6.094;2023-04-28T06:33:58;14.00;99.90
26212;DHT22;13951;49.516;6.094;2023-04-28T06:36:31;14.10;99.90
26212;DHT22;13951;49.516;6.094;2023-04-28T06:39:04;14.10;99.90
26212;DHT22;13951;49.516;6.094;2023-04-28T06:41:38;14.20;99.90
26212;DHT22;13951;49.516;6.094;2023-04-28T06:44:12;14.20;99.90
26212;DHT22;13951;49.516;6.094;2023-04-28T06:46:45;14.20;99.90
26212;DHT22;13951;49.516;6.094;2023-04-28T06:49:18;14.20;99.90
26212;DHT22;13951;49.516;6.094;2023-04-28T06:51:52;14.30;99.90
26212;DHT22;13951;49.516;6.094;2023-04-28T06:54:25;14.40;99.90
26212;DHT22;13951;49.516;6.094;2023-04-28T06:56:58;14.40;99.90
26212;DHT22;13951;49.516;6.094;2023-04-28T06:59:33;14.50;99.90
26212;DHT22;13951;49.516;6.094;2023-04-28T07:02:06;14.50;99.90
26212;DHT22;13951;49.516;6.094;2023-04-28T07:04:39;14.50;99.90
26212;DHT22;13951;49.516;6.094;2023-04-28T07:07:12;14.50;99.90
26212;DHT22;13951;49.516;6.094;2023-04-28T07:09:45;14.50;99.90
26212;DHT22;13951;49.516;6.094;2023-04-28T07:12:18;14.50;99.90
26212;DHT22;13951;49.516;6.094;2023-04-28T07:14:51;14.50;99.90
26212;DHT22;13951;49.516;6.094;2023-04-28T07:17:24;14.50;99.90
26212;DHT22;13951;49.516;6.094;2023-04-28T07:22:30;14.60;99.90
26212;DHT22;13951;49.516;6.094;2023-04-28T07:25:03;14.60;99.90
26212;DHT22;13951;49.516;6.094;2023-04-28T07:27:37;14.70;99.90
26212;DHT22;13951;49.516;6.094;2023-04-28T07:30:10;14.70;99.90
26212;DHT22;13951;49.516;6.094;2023-04-28T07:32:59;14.70;99.90
26212;DHT22;13951;49.516;6.094;2023-04-28T07:38:06;14.70;99.90
26212;DHT22;13951;49.516;6.094;2023-04-28T07:40:40;14.80;99.90
26212;DHT22;13951;49.516;6.094;2023-04-28T07:43:13;14.90;99.90
26212;DHT22;13951;49.516;6.094;2023-04-28T07:45:46;14.90;99.90
26212;DHT22;13951;49.516;6.094;2023-04-28T07:48:21;15.00;99.90
26212;DHT22;13951;49.516;6.094;2023-04-28T07:50:56;15.00;99.90
26212;DHT22;13951;49.516;6.094;2023-04-28T07:53:29;15.00;99.90
26212;DHT22;13951;49.516;6.094;2023-04-28T07:56:02;15.10;99.90
26212;DHT22;13951;49.516;6.094;2023-04-28T07:58:35;15.10;99.90
26212;DHT22;13951;49.516;6.094;2023-04-28T08:01:07;15.10;99.90
26212;DHT22;13951;49.516;6.094;2023-04-28T08:03:40;15.10;99.90
26212;DHT22;13951;49.516;6.094;2023-04-28T08:06:14;15.10;99.90
26212;DHT22;13951;49.516;6.094;2023-04-28T08:08:47;15.10;99.90
26212;DHT22;13951;49.516;6.094;2023-04-28T08:11:21;15.10;99.90
26212;DHT22;13951;49.516;6.094;2023-04-28T08:13:55;15.10;99.90
26212;DHT22;13951;49.516;6.094;2023-04-28T08:16:32;15.10;99.90
26212;DHT22;13951;49.516;6.094;2023-04-28T08:19:08;15.10;99.90
26212;DHT22;13951;49.516;6.094;2023-04-28T08:26:52;15.00;99.90
26212;DHT22;13951;49.516;6.094;2023-04-28T08:29:26;15.00;99.90
26212;DHT22;13951;49.516;6.094;2023-04-28T08:32:00;15.10;99.90
26212;DHT22;13951;49.516;6.094;2023-04-28T08:34:34;15.10;99.90
26212;DHT22;13951;49.516;6.094;2023-04-28T08:37:07;15.10;99.90
26212;DHT22;13951;49.516;6.094;2023-04-28T08:39:40;15.10;99.90
26212;DHT22;13951;49.516;6.094;2023-04-28T08:42:13;15.20;99.90
26212;DHT22;13951;49.516;6.094;2023-04-28T08:44:46;15.20;99.90
26212;DHT22;13951;49.516;6.094;2023-04-28T08:47:21;15.20;99.90
26212;DHT22;13951;49.516;6.094;2023-04-28T08:50:02;15.30;99.90
26212;DHT22;13951;49.516;6.094;2023-04-28T08:52:36;15.30;99.90
26212;DHT22;13951;49.516;6.094;2023-04-28T08:55:10;15.40;99.90
26212;DHT22;13951;49.516;6.094;2023-04-28T08:57:47;15.40;99.90
26212;DHT22;13951;49.516;6.094;2023-04-28T09:00:21;15.40;99.90
26212;DHT22;13951;49.516;6.094;2023-04-28T09:02:53;15.40;99.90
26212;DHT22;13951;49.516;6.094;2023-04-28T09:05:26;15.40;99.90
26212;DHT22;13951;49.516;6.094;2023-04-28T09:08:01;15.40;99.90
26212;DHT22;13951;49.516;6.094;2023-04-28T09:10:35;15.40;99.90
26212;DHT22;13951;49.516;6.094;2023-04-28T09:13:08;15.50;99.90
26212;DHT22;13951;49.516;6.094;2023-04-28T09:15:41;15.50;99.90
26212;DHT22;13951;49.516;6.094;2023-04-28T09:18:14;15.50;99.90
26212;DHT22;13951;49.516;6.094;2023-04-28T09:20:48;15.60;99.90
26212;DHT22;13951;49.516;6.094;2023-04-28T09:23:21;15.60;99.90
26212;DHT22;13951;49.516;6.094;2023-04-28T09:26:05;15.60;99.90
26212;DHT22;13951;49.516;6.094;2023-04-28T09:28:39;15.70;99.90
26212;DHT22;13951;49.516;6.094;2023-04-28T09:31:25;15.70;99.90
26212;DHT22;13951;49.516;6.094;2023-04-28T09:34:01;15.80;99.90
26212;DHT22;13951;49.516;6.094;2023-04-28T09:36:36;15.80;99.90
26212;DHT22;13951;49.516;6.094;2023-04-28T09:39:09;15.80;99.90
26212;DHT22;13951;49.516;6.094;2023-04-28T09:41:43;15.70;99.90
26212;DHT22;13951;49.516;6.094;2023-04-28T09:44:18;15.60;99.90
26212;DHT22;13951;49.516;6.094;2023-04-28T09:46:51;15.60;99.90
26212;DHT22;13951;49.516;6.094;2023-04-28T09:49:24;15.60;99.90
26212;DHT22;13951;49.516;6.094;2023-04-28T09:52:11;15.60;99.90
26212;DHT22;13951;49.516;6.094;2023-04-28T09:54:54;15.60;99.90
26212;DHT22;13951;49.516;6.094;2023-04-28T09:58:55;15.70;99.90
26212;DHT22;13951;49.516;6.094;2023-04-28T10:01:42;15.80;99.90
26212;DHT22;13951;49.516;6.094;2023-04-28T10:04:33;15.90;99.90
26212;DHT22;13951;49.516;6.094;2023-04-28T10:07:24;16.10;99.90
26212;DHT22;13951;49.516;6.094;2023-04-28T10:10:08;16.10;99.90
26212;DHT22;13951;49.516;6.094;2023-04-28T10:16:32;16.40;99.90
26212;DHT22;13951;49.516;6.094;2023-04-28T10:21:46;16.50;99.90
26212;DHT22;13951;49.516;6.094;2023-04-28T10:24:28;16.50;99.90
26212;DHT22;13951;49.516;6.094;2023-04-28T10:29:37;16.80;99.90
26212;DHT22;13951;49.516;6.094;2023-04-28T10:32:18;16.90;99.90
26212;DHT22;13951;49.516;6.094;2023-04-28T10:34:51;17.00;99.90
26212;DHT22;13951;49.516;6.094;2023-04-28T10:38:01;17.20;99.90
26212;DHT22;13951;49.516;6.094;2023-04-28T10:40:36;17.20;99.90
26212;DHT22;13951;49.516;6.094;2023-04-28T10:43:34;17.30;99.90
26212;DHT22;13951;49.516;6.094;2023-04-28T10:46:09;17.40;99.90
26212;DHT22;13951;49.516;6.094;2023-04-28T10:56:25;18.00;99.90
26212;DHT22;13951;49.516;6.094;2023-04-28T10:59:25;18.00;99.90
26212;DHT22;13951;49.516;6.094;2023-04-28T11:02:38;18.00;99.90
26212;DHT22;13951;49.516;6.094;2023-04-28T11:05:17;18.00;99.90
26212;DHT22;13951;49.516;6.094;2023-04-28T11:08:30;18.00;99.90
26212;DHT22;13951;49.516;6.094;2023-04-28T11:13:43;18.00;99.90
26212;DHT22;13951;49.516;6.094;2023-04-28T11:16:20;18.20;99.90
26212;DHT22;13951;49.516;6.094;2023-04-28T11:18:59;18.50;99.90
26212;DHT22;13951;49.516;6.094;2023-04-28T11:21:36;18.70;99.90
26212;DHT22;13951;49.516;6.094;2023-04-28T11:24:11;18.70;99.90
26212;DHT22;13951;49.516;6.094;2023-04-28T11:27:05;18.70;99.90
26212;DHT22;13951;49.516;6.094;2023-04-28T11:29:39;18.60;99.90
26212;DHT22;13951;49.516;6.094;2023-04-28T11:32:13;18.50;99.90
26212;DHT22;13951;49.516;6.094;2023-04-28T11:34:50;18.50;99.90
26212;DHT22;13951;49.516;6.094;2023-04-28T11:37:23;18.50;99.90
26212;DHT22;13951;49.516;6.094;2023-04-28T11:39:56;18.60;99.90
26212;DHT22;13951;49.516;6.094;2023-04-28T11:42:29;18.90;99.90
26212;DHT22;13951;49.516;6.094;2023-04-28T11:45:05;19.20;99.90
26212;DHT22;13951;49.516;6.094;2023-04-28T11:47:38;19.30;99.90
26212;DHT22;13951;49.516;6.094;2023-04-28T11:50:11;19.30;99.90
26212;DHT22;13951;49.516;6.094;2023-04-28T11:52:49;19.40;99.90
26212;DHT22;13951;49.516;6.094;2023-04-28T11:55:25;19.50;99.90
26212;DHT22;13951;49.516;6.094;2023-04-28T11:58:19;19.70;99.90
26212;DHT22;13951;49.516;6.094;2023-04-28T12:03:45;19.40;99.90
26212;DHT22;13951;49.516;6.094;2023-04-28T12:06:18;19.30;99.90
26212;DHT22;13951;49.516;6.094;2023-04-28T12:08:51;19.10;99.90
26212;DHT22;13951;49.516;6.094;2023-04-28T12:11:25;18.90;99.90
26212;DHT22;13951;49.516;6.094;2023-04-28T12:14:05;18.80;99.90
26212;DHT22;13951;49.516;6.094;2023-04-28T12:16:42;18.60;99.90
26212;DHT22;13951;49.516;6.094;2023-04-28T12:19:17;18.50;99.90
26212;DHT22;13951;49.516;6.094;2023-04-28T12:22:03;18.30;99.90
26212;DHT22;13951;49.516;6.094;2023-04-28T12:24:37;18.20;99.90
26212;DHT22;13951;49.516;6.094;2023-04-28T12:27:18;18.00;99.90
26212;DHT22;13951;49.516;6.094;2023-04-28T12:29:53;17.90;99.90
26212;DHT22;13951;49.516;6.094;2023-04-28T12:32:38;17.80;99.90
26212;DHT22;13951;49.516;6.094;2023-04-28T12:35:11;17.60;99.90
26212;DHT22;13951;49.516;6.094;2023-04-28T12:37:44;17.60;99.90
26212;DHT22;13951;49.516;6.094;2023-04-28T12:40:18;17.50;99.90
26212;DHT22;13951;49.516;6.094;2023-04-28T12:42:51;17.40;99.90
26212;DHT22;13951;49.516;6.094;2023-04-28T12:45:24;17.40;99.90
26212;DHT22;13951;49.516;6.094;2023-04-28T12:47:57;17.30;99.90
26212;DHT22;13951;49.516;6.094;2023-04-28T12:50:30;17.30;99.90
26212;DHT22;13951;49.516;6.094;2023-04-28T12:53:04;17.20;99.90
26212;DHT22;13951;49.516;6.094;2023-04-28T12:55:38;17.10;99.90
26212;DHT22;13951;49.516;6.094;2023-04-28T12:58:12;17.00;99.90
26212;DHT22;13951;49.516;6.094;2023-04-28T13:00:45;17.00;99.90
26212;DHT22;13951;49.516;6.094;2023-04-28T13:03:17;17.00;99.90
26212;DHT22;13951;49.516;6.094;2023-04-28T13:05:52;17.00;99.90
26212;DHT22;13951;49.516;6.094;2023-04-28T13:08:25;17.00;99.90
26212;DHT22;13951;49.516;6.094;2023-04-28T13:10:58;17.00;99.90
26212;DHT22;13951;49.516;6.094;2023-04-28T13:13:34;17.00;99.90
26212;DHT22;13951;49.516;6.094;2023-04-28T13:16:07;17.00;99.90
26212;DHT22;13951;49.516;6.094;2023-04-28T13:18:40;17.00;99.90
26212;DHT22;13951;49.516;6.094;2023-04-28T13:21:13;17.00;99.90
26212;DHT22;13951;49.516;6.094;2023-04-28T13:23:46;17.00;99.90
26212;DHT22;13951;49.516;6.094;2023-04-28T13:26:19;17.00;99.90
26212;DHT22;13951;49.516;6.094;2023-04-28T13:28:52;17.20;99.90
26212;DHT22;13951;49.516;6.094;2023-04-28T13:31:25;17.30;99.90
26212;DHT22;13951;49.516;6.094;2023-04-28T13:33:59;17.50;99.90
26212;DHT22;13951;49.516;6.094;2023-04-28T13:36:33;17.60;99.90
26212;DHT22;13951;49.516;6.094;2023-04-28T13:39:06;17.70;99.90
26212;DHT22;13951;49.516;6.094;2023-04-28T13:41:43;17.80;99.90
26212;DHT22;13951;49.516;6.094;2023-04-28T13:44:16;17.90;99.90
26212;DHT22;13951;49.516;6.094;2023-04-28T13:46:49;17.90;99.90
26212;DHT22;13951;49.516;6.094;2023-04-28T13:49:22;18.00;99.90
26212;DHT22;13951;49.516;6.094;2023-04-28T13:51:56;18.10;99.90
26212;DHT22;13951;49.516;6.094;2023-04-28T13:54:32;18.20;99.90
26212;DHT22;13951;49.516;6.094;2023-04-28T13:57:05;18.30;99.90
26212;DHT22;13951;49.516;6.094;2023-04-28T13:59:38;18.40;99.90
26212;DHT22;13951;49.516;6.094;2023-04-28T14:02:11;18.40;99.90
26212;DHT22;13951;49.516;6.094;2023-04-28T14:04:44;18.40;99.90
26212;DHT22;13951;49.516;6.094;2023-04-28T14:07:21;18.40;99.90
26212;DHT22;13951;49.516;6.094;2023-04-28T14:09:53;18.40;99.90
26212;DHT22;13951;49.516;6.094;2023-04-28T14:12:26;18.50;99.90
26212;DHT22;13951;49.516;6.094;2023-04-28T14:15:00;18.50;99.90
26212;DHT22;13951;49.516;6.094;2023-04-28T14:17:33;18.60;99.90
26212;DHT22;13951;49.516;6.094;2023-04-28T14:20:07;18.60;99.90
26212;DHT22;13951;49.516;6.094;2023-04-28T14:22:43;18.60;99.90
26212;DHT22;13951;49.516;6.094;2023-04-28T14:25:16;18.80;99.90
26212;DHT22;13951;49.516;6.094;2023-04-28T14:27:50;18.80;99.90
26212;DHT22;13951;49.516;6.094;2023-04-28T14:30:24;18.80;99.90
26212;DHT22;13951;49.516;6.094;2023-04-28T14:32:57;18.80;99.90
26212;DHT22;13951;49.516;6.094;2023-04-28T14:35:31;18.90;99.90
26212;DHT22;13951;49.516;6.094;2023-04-28T14:38:04;19.00;99.90
26212;DHT22;13951;49.516;6.094;2023-04-28T14:40:37;19.10;99.90
26212;DHT22;13951;49.516;6.094;2023-04-28T14:43:10;19.10;99.90
26212;DHT22;13951;49.516;6.094;2023-04-28T14:45:43;19.10;99.90
26212;DHT22;13951;49.516;6.094;2023-04-28T14:48:16;19.20;99.90
26212;DHT22;13951;49.516;6.094;2023-04-28T14:50:49;19.20;99.90
26212;DHT22;13951;49.516;6.094;2023-04-28T14:53:23;19.20;99.90
26212;DHT22;13951;49.516;6.094;2023-04-28T14:55:56;19.30;99.90
26212;DHT22;13951;49.516;6.094;2023-04-28T14:58:49;19.30;99.90
26212;DHT22;13951;49.516;6.094;2023-04-28T15:01:23;19.30;99.90
26212;DHT22;13951;49.516;6.094;2023-04-28T15:03:56;19.30;99.90
26212;DHT22;13951;49.516;6.094;2023-04-28T15:06:30;19.30;99.90
26212;DHT22;13951;49.516;6.094;2023-04-28T15:09:04;19.20;99.90
26212;DHT22;13951;49.516;6.094;2023-04-28T15:11:37;19.20;99.90
26212;DHT22;13951;49.516;6.094;2023-04-28T15:14:10;19.20;99.90
26212;DHT22;13951;49.516;6.094;2023-04-28T15:16:44;19.20;99.90
26212;DHT22;13951;49.516;6.094;2023-04-28T15:19:17;19.30;99.90
26212;DHT22;13951;49.516;6.094;2023-04-28T15:21:50;19.20;99.90
26212;DHT22;13951;49.516;6.094;2023-04-28T15:24:23;19.20;99.90
26212;DHT22;13951;49.516;6.094;2023-04-28T15:26:56;19.20;99.90
26212;DHT22;13951;49.516;6.094;2023-04-28T15:29:34;19.20;99.90
26212;DHT22;13951;49.516;6.094;2023-04-28T15:32:07;19.10;99.90
26212;DHT22;13951;49.516;6.094;2023-04-28T15:34:40;19.20;99.90
26212;DHT22;13951;49.516;6.094;2023-04-28T15:40:10;19.00;99.90
26212;DHT22;13951;49.516;6.094;2023-04-28T15:42:45;18.90;99.90
26212;DHT22;13951;49.516;6.094;2023-04-28T15:45:21;18.90;99.90
26212;DHT22;13951;49.516;6.094;2023-04-28T15:47:54;18.80;99.90
26212;DHT22;13951;49.516;6.094;2023-04-28T15:50:28;18.80;99.90
26212;DHT22;13951;49.516;6.094;2023-04-28T15:53:01;18.70;99.90
26212;DHT22;13951;49.516;6.094;2023-04-28T15:55:35;18.60;99.90
26212;DHT22;13951;49.516;6.094;2023-04-28T15:58:08;18.60;99.90
26212;DHT22;13951;49.516;6.094;2023-04-28T16:00:42;18.50;99.90
26212;DHT22;13951;49.516;6.094;2023-04-28T16:03:17;18.50;99.90
26212;DHT22;13951;49.516;6.094;2023-04-28T16:05:54;18.40;99.90
26212;DHT22;13951;49.516;6.094;2023-04-28T16:08:27;18.50;99.90
26212;DHT22;13951;49.516;6.094;2023-04-28T16:11:01;18.50;99.90
26212;DHT22;13951;49.516;6.094;2023-04-28T16:13:35;18.50;99.90
26212;DHT22;13951;49.516;6.094;2023-04-28T16:16:08;18.50;99.90
26212;DHT22;13951;49.516;6.094;2023-04-28T16:18:43;18.50;99.90
26212;DHT22;13951;49.516;6.094;2023-04-28T16:21:16;18.50;99.90
26212;DHT22;13951;49.516;6.094;2023-04-28T16:23:52;18.50;99.90
26212;DHT22;13951;49.516;6.094;2023-04-28T16:26:25;18.50;99.90
26212;DHT22;13951;49.516;6.094;2023-04-28T16:28:58;18.40;99.90
26212;DHT22;13951;49.516;6.094;2023-04-28T16:31:31;18.40;99.90
26212;DHT22;13951;49.516;6.094;2023-04-28T16:34:05;18.30;99.90
26212;DHT22;13951;49.516;6.094;2023-04-28T16:36:38;18.30;99.90
26212;DHT22;13951;49.516;6.094;2023-04-28T16:39:11;18.30;99.90
26212;DHT22;13951;49.516;6.094;2023-04-28T16:41:44;18.20;99.90
26212;DHT22;13951;49.516;6.094;2023-04-28T16:44:18;18.30;99.90
26212;DHT22;13951;49.516;6.094;2023-04-28T16:46:51;18.20;99.90
26212;DHT22;13951;49.516;6.094;2023-04-28T16:49:26;18.30;99.90
26212;DHT22;13951;49.516;6.094;2023-04-28T16:52:01;18.20;99.90
26212;DHT22;13951;49.516;6.094;2023-04-28T16:54:35;18.20;99.90
26212;DHT22;13951;49.516;6.094;2023-04-28T16:57:08;18.20;99.90